createdAt,value
2018-04-02T00:01:29.167Z,74.10
2018-04-02T00:03:57.580Z,69.97
2018-04-02T00:06:26.006Z,66.50
2018-04-02T00:08:54.471Z,72.27
2018-04-02T00:11:22.915Z,77.93
2018-04-02T00:13:52.057Z,72.80
2018-04-02T00:16:19.725Z,73.93
2018-04-02T00:18:48.488Z,73.83
2018-04-02T00:21:17.330Z,70.37
2018-04-02T00:23:46.290Z,77.87
2018-04-02T00:26:13.974Z,73.13
2018-04-02T00:28:42.777Z,77.87
2018-04-02T00:31:10.431Z,69.53
2018-04-02T00:33:38.455Z,70.70
2018-04-02T00:36:06.863Z,68.03
2018-04-02T00:38:36.057Z,68.20
2018-04-02T00:41:03.684Z,69.50
2018-04-02T00:43:31.328Z,69.47
2018-04-02T00:45:58.948Z,68.07
2018-04-02T00:48:27.975Z,76.43
2018-04-02T00:50:55.632Z,66.67
2018-04-02T00:53:23.704Z,68.80
2018-04-02T00:55:51.417Z,72.37
2018-04-02T00:58:20.451Z,68.47
2018-04-02T01:00:48.904Z,62.70
2018-04-02T01:03:17.325Z,63.27
2018-04-02T01:05:45.408Z,64.00
2018-04-02T01:08:13.423Z,62.63
2018-04-02T01:10:42.429Z,68.33
2018-04-02T01:13:10.854Z,67.20
2018-04-02T01:15:39.665Z,58.97
2018-04-02T01:18:08.176Z,68.97
2018-04-02T01:20:36.571Z,59.10
2018-04-02T01:23:04.256Z,52.87
2018-04-02T01:25:32.348Z,61.40
2018-04-02T01:28:00.013Z,59.53
2018-04-02T01:30:28.388Z,62.77
2018-04-02T01:32:56.803Z,63.60
2018-04-02T01:35:24.561Z,62.57
2018-04-02T01:37:53.587Z,64.83
2018-04-02T01:40:21.204Z,57.97
2018-04-02T01:42:50.047Z,59.03
2018-04-02T01:45:17.688Z,55.63
2018-04-02T01:47:46.694Z,68.33
2018-04-02T01:50:14.356Z,62.90
2018-04-02T01:52:43.533Z,65.83
2018-04-02T01:55:11.234Z,70.60
2018-04-02T01:57:40.302Z,65.77
2018-04-02T02:00:09.124Z,65.03
2018-04-02T02:02:37.621Z,64.63
2018-04-02T02:05:05.641Z,69.57
2018-04-02T02:07:34.025Z,63.60
2018-04-02T02:10:02.075Z,69.27
2018-04-02T02:12:30.875Z,73.27
2018-04-02T02:14:58.883Z,72.40
2018-04-02T02:17:27.301Z,73.43
2018-04-02T02:19:55.736Z,69.77
2018-04-02T02:22:23.832Z,73.43
2018-04-02T02:24:52.278Z,67.90
2018-04-02T02:27:19.918Z,65.43
2018-04-02T02:29:47.624Z,76.00
2018-04-02T02:32:15.292Z,76.23
2018-04-02T02:34:42.938Z,74.53
2018-04-02T02:37:10.613Z,70.50
2018-04-02T02:39:38.343Z,76.60
2018-04-02T02:42:06.438Z,71.30
2018-04-02T02:44:34.085Z,71.77
2018-04-02T02:47:02.545Z,58.93
2018-04-02T02:49:30.947Z,71.27
2018-04-02T02:51:59.371Z,70.70
2018-04-02T02:54:27.784Z,80.40
2018-04-02T02:56:55.852Z,64.87
2018-04-02T02:59:24.242Z,72.40
2018-04-02T03:01:52.342Z,74.80
2018-04-02T03:04:20.752Z,70.17
2018-04-02T03:06:49.474Z,77.83
2018-04-02T03:09:17.112Z,72.17
2018-04-02T03:11:45.526Z,69.73
2018-04-02T03:14:14.016Z,75.33
2018-04-02T03:16:42.042Z,70.97
2018-04-02T03:19:10.132Z,76.80
2018-04-02T03:21:37.812Z,75.57
2018-04-02T03:24:05.459Z,67.30
2018-04-02T03:26:34.331Z,74.70
2018-04-02T03:29:01.940Z,61.70
2018-04-02T03:31:29.581Z,77.00
2018-04-02T03:33:57.670Z,81.50
2018-04-02T03:36:26.090Z,79.77
2018-04-02T03:38:55.101Z,76.30
2018-04-02T03:41:23.921Z,81.12
2018-04-02T03:43:51.615Z,62.13
2018-04-02T03:46:19.257Z,89.03
2018-04-02T03:48:46.872Z,58.80
2018-04-02T03:51:15.939Z,74.63
2018-04-02T03:53:43.620Z,84.25
2018-04-02T03:56:11.653Z,82.97
2018-04-02T03:58:40.175Z,75.37
2018-04-02T04:01:08.561Z,85.10
2018-04-02T04:03:36.979Z,81.82
2018-04-02T04:06:05.371Z,82.73
2018-04-02T04:08:33.056Z,79.37
2018-04-02T04:11:00.734Z,77.03
2018-04-02T04:13:28.794Z,89.60
2018-04-02T04:15:57.810Z,69.60
2018-04-02T04:18:26.203Z,88.40
2018-04-02T04:20:54.343Z,86.65
2018-04-02T04:23:22.739Z,88.65
2018-04-02T04:25:51.178Z,87.45
2018-04-02T04:28:19.213Z,78.67
2018-04-02T04:30:46.856Z,69.30
2018-04-02T04:33:15.339Z,75.63
2018-04-02T04:35:43.319Z,74.82
2018-04-02T04:38:10.967Z,78.37
2018-04-02T04:40:39.361Z,76.18
2018-04-02T04:43:07.820Z,73.60
2018-04-02T04:45:36.192Z,79.57
2018-04-02T04:48:04.576Z,88.80
2018-04-02T04:50:33.039Z,72.57
2018-04-02T04:53:00.717Z,60.80
2018-04-02T04:55:29.120Z,82.85
2018-04-02T04:57:56.814Z,70.30
2018-04-02T05:00:25.331Z,63.08
2018-04-02T05:02:53.349Z,80.25
2018-04-02T05:05:21.002Z,70.95
2018-04-02T05:07:49.835Z,78.60
2018-04-02T05:10:17.870Z,81.57
2018-04-02T05:12:45.563Z,80.72
2018-04-02T05:15:14.468Z,83.47
2018-04-02T05:17:42.887Z,79.68
2018-04-02T05:20:10.529Z,83.40
2018-04-02T05:22:38.976Z,81.22
2018-04-02T05:25:06.602Z,76.75
2018-04-02T05:27:35.379Z,74.32
2018-04-02T05:30:03.866Z,87.23
2018-04-02T05:32:31.965Z,81.53
2018-04-02T05:34:59.635Z,82.18
2018-04-02T05:37:28.030Z,64.05
2018-04-02T05:39:56.475Z,74.97
2018-04-02T05:42:24.530Z,71.97
2018-04-02T05:44:52.159Z,77.80
2018-04-02T05:47:20.565Z,66.97
2018-04-02T05:49:48.607Z,85.67
2018-04-02T05:52:16.675Z,81.77
2018-04-02T05:54:44.354Z,71.85
2018-04-02T05:57:12.469Z,73.83
2018-04-02T05:59:40.130Z,72.77
2018-04-02T06:02:07.799Z,71.70
2018-04-02T06:04:35.436Z,59.13
2018-04-02T06:07:03.075Z,65.87
2018-04-02T06:09:31.132Z,62.50
2018-04-02T06:12:00.122Z,67.63
2018-04-02T06:14:28.560Z,65.77
2018-04-02T06:16:56.652Z,74.57
2018-04-02T06:19:25.047Z,63.47
2018-04-02T06:21:53.466Z,58.67
2018-04-02T06:24:21.071Z,69.50
2018-04-02T06:26:49.172Z,64.60
2018-04-02T06:29:17.565Z,64.50
2018-04-02T06:31:46.084Z,59.33
2018-04-02T06:34:14.186Z,57.67
2018-04-02T06:36:41.845Z,68.50
2018-04-02T06:39:09.504Z,63.17
2018-04-02T06:41:38.688Z,62.67
2018-04-02T06:44:06.781Z,57.63
2018-04-02T06:46:34.398Z,67.10
2018-04-02T06:49:02.494Z,60.40
2018-04-02T06:51:31.480Z,73.97
2018-04-02T06:53:59.521Z,68.23
2018-04-02T06:56:27.187Z,69.27
2018-04-02T06:58:54.901Z,72.57
2018-04-02T07:01:22.562Z,70.87
2018-04-02T07:03:51.401Z,62.10
2018-04-02T07:06:19.040Z,66.60
2018-04-02T07:08:47.414Z,67.73
2018-04-02T07:11:15.827Z,66.03
2018-04-02T07:13:43.497Z,68.57
2018-04-02T07:16:11.194Z,64.13
2018-04-02T07:18:39.563Z,63.93
2018-04-02T07:21:07.219Z,67.73
2018-04-02T07:23:35.671Z,72.90
2018-04-02T07:26:03.666Z,70.77
2018-04-02T07:28:31.309Z,80.63
2018-04-02T07:31:00.114Z,72.23
2018-04-02T07:33:28.147Z,57.47
2018-04-02T07:35:56.949Z,68.27
2018-04-02T07:38:25.434Z,68.03
2018-04-02T07:40:53.822Z,65.17
2018-04-02T07:43:22.260Z,65.83
2018-04-02T07:45:50.327Z,73.70
2018-04-02T07:48:18.754Z,67.00
2018-04-02T07:50:47.200Z,60.13
2018-04-02T07:53:15.646Z,60.93
2018-04-02T07:55:43.261Z,66.93
2018-04-02T07:58:11.336Z,65.40
2018-04-02T08:00:39.370Z,65.53
2018-04-02T08:03:07.441Z,70.87
2018-04-02T08:05:36.620Z,66.60
2018-04-02T08:08:04.281Z,61.23
2018-04-02T08:10:32.344Z,59.57
2018-04-02T08:13:00.412Z,62.93
2018-04-02T08:15:28.468Z,62.23
2018-04-02T08:17:56.151Z,65.83
2018-04-02T08:20:23.970Z,56.73
2018-04-02T08:22:51.651Z,58.50
2018-04-02T08:25:20.078Z,60.07
2018-04-02T08:27:47.728Z,55.90
2018-04-02T08:30:16.214Z,53.83
2018-04-02T08:32:44.672Z,60.73
2018-04-02T08:35:12.719Z,56.53
2018-04-02T08:37:41.583Z,53.27
2018-04-02T08:40:09.973Z,57.97
2018-04-02T08:42:37.655Z,57.83
2018-04-02T08:45:06.023Z,58.40
2018-04-02T08:47:34.088Z,62.33
2018-04-02T08:50:03.125Z,67.63
2018-04-02T08:52:30.744Z,63.90
2018-04-02T08:54:58.411Z,63.77
2018-04-02T08:57:26.038Z,67.87
2018-04-02T08:59:54.541Z,73.67
2018-04-02T09:02:22.926Z,67.03
2018-04-02T09:04:50.562Z,83.30
2018-04-02T09:07:18.986Z,75.17
2018-04-02T09:09:47.040Z,81.33
2018-04-02T09:12:15.067Z,89.47
2018-04-02T09:14:43.187Z,78.77
2018-04-02T09:17:10.885Z,85.50
2018-04-02T09:19:39.744Z,81.13
2018-04-02T09:22:07.515Z,83.47
2018-04-02T09:24:36.320Z,91.20
2018-04-02T09:27:04.044Z,88.53
2018-04-02T09:29:32.410Z,89.37
2018-04-02T09:32:00.453Z,91.80
2018-04-02T09:34:28.182Z,96.80
2018-04-02T09:36:56.590Z,94.63
2018-04-02T09:39:25.562Z,90.70
2018-04-02T09:41:53.242Z,88.20
2018-04-02T09:44:21.617Z,92.10
2018-04-02T09:46:50.405Z,89.87
2018-04-02T09:49:18.073Z,83.03
2018-04-02T09:51:46.099Z,85.60
2018-04-02T09:54:14.198Z,88.03
2018-04-02T09:56:42.285Z,84.90
2018-04-02T09:59:10.370Z,92.70
2018-04-02T10:01:38.017Z,90.77
2018-04-02T10:04:07.949Z,98.53
2018-04-02T10:06:35.601Z,86.20
2018-04-02T10:09:04.659Z,84.90
2018-04-02T10:11:32.658Z,79.70
2018-04-02T10:14:00.299Z,88.33
2018-04-02T10:16:28.736Z,87.90
2018-04-02T10:18:57.108Z,85.97
2018-04-02T10:21:25.587Z,78.43
2018-04-02T10:23:53.227Z,78.17
2018-04-02T10:26:21.280Z,83.90
2018-04-02T10:28:48.952Z,81.60
2018-04-02T10:31:16.594Z,79.80
2018-04-02T10:33:44.612Z,73.03
2018-04-02T10:36:12.727Z,74.53
2018-04-02T10:38:40.398Z,73.97
2018-04-02T10:41:08.053Z,68.77
2018-04-02T10:43:36.084Z,67.27
2018-04-02T10:46:04.523Z,66.27
2018-04-02T10:48:32.265Z,64.07
2018-04-02T10:51:00.659Z,74.03
2018-04-02T10:53:28.692Z,78.07
2018-04-02T10:55:57.467Z,81.97
2018-04-02T10:58:25.112Z,81.23
2018-04-02T11:00:52.788Z,76.33
2018-04-02T11:03:21.959Z,77.63
2018-04-02T11:05:50.028Z,67.37
2018-04-02T11:08:17.690Z,71.87
2018-04-02T11:10:46.840Z,68.47
2018-04-02T11:13:15.217Z,74.13
2018-04-02T11:15:43.648Z,68.33
2018-04-02T11:18:11.684Z,67.10
2018-04-02T11:20:40.096Z,71.53
2018-04-02T11:23:07.819Z,62.63
2018-04-02T11:25:36.219Z,60.53
2018-04-02T11:28:03.867Z,57.47
2018-04-02T11:30:31.931Z,65.00
2018-04-02T11:32:59.959Z,61.63
2018-04-02T11:35:27.572Z,58.37
2018-04-02T11:37:56.351Z,63.73
2018-04-02T11:40:24.391Z,52.43
2018-04-02T11:42:52.822Z,57.33
2018-04-02T11:45:20.892Z,53.23
2018-04-02T11:47:50.022Z,54.73
2018-04-02T11:50:17.694Z,54.03
2018-04-02T11:52:45.329Z,54.70
2018-04-02T11:55:13.754Z,48.80
2018-04-02T11:57:42.515Z,53.30
2018-04-02T12:00:10.963Z,45.30
2018-04-02T12:02:38.609Z,49.33
2018-04-02T12:05:07.023Z,50.53
2018-04-02T12:07:35.450Z,48.63
2018-04-02T12:10:05.190Z,46.57
2018-04-02T12:12:34.622Z,51.70
2018-04-02T12:15:02.231Z,50.03
2018-04-02T12:17:31.011Z,52.60
2018-04-02T12:19:59.050Z,45.57
2018-04-02T12:22:26.662Z,45.07
2018-04-02T12:24:54.336Z,46.33
2018-04-02T12:27:24.148Z,40.10
2018-04-02T12:29:52.324Z,38.97
2018-04-02T12:32:20.802Z,43.33
2018-04-02T12:34:48.815Z,35.97
2018-04-02T12:37:17.269Z,37.60
2018-04-02T12:39:44.964Z,36.17
2018-04-02T12:42:12.649Z,34.30
2018-04-02T12:44:40.687Z,40.63
2018-04-02T12:47:08.752Z,39.50
2018-04-02T12:49:36.443Z,44.00
2018-04-02T12:52:04.507Z,37.87
2018-04-02T12:54:32.171Z,37.13
2018-04-02T12:57:00.586Z,35.77
2018-04-02T12:59:28.210Z,39.00
2018-04-02T13:01:56.663Z,34.53
2018-04-02T13:04:24.302Z,38.47
2018-04-02T13:06:51.970Z,35.60
2018-04-02T13:09:20.032Z,30.47
2018-04-02T13:11:47.701Z,33.53
2018-04-02T13:14:16.452Z,28.60
2018-04-02T13:16:44.554Z,32.50
2018-04-02T13:19:12.261Z,32.17
2018-04-02T13:21:39.916Z,31.00
2018-04-02T13:24:07.947Z,29.50
2018-04-02T13:26:36.724Z,30.50
2018-04-02T13:29:05.122Z,29.70
2018-04-02T13:31:34.259Z,27.20
2018-04-02T13:34:01.900Z,30.17
2018-04-02T13:36:30.890Z,29.07
2018-04-02T13:39:01.064Z,30.23
2018-04-02T13:41:28.761Z,28.80
2018-04-02T13:43:57.167Z,26.63
2018-04-02T13:46:25.183Z,28.53
2018-04-02T13:48:54.063Z,27.60
2018-04-02T13:51:22.436Z,28.03
2018-04-02T13:53:50.476Z,29.07
2018-04-02T13:56:19.528Z,31.40
2018-04-02T13:58:47.238Z,35.13
2018-04-02T14:01:15.680Z,31.27
2018-04-02T14:03:44.714Z,29.10
2018-04-02T14:06:12.357Z,29.40
2018-04-02T14:08:41.503Z,24.20
2018-04-02T14:11:10.344Z,26.63
2018-04-02T14:13:38.765Z,28.23
2018-04-02T14:16:06.410Z,26.67
2018-04-02T14:18:35.584Z,25.47
2018-04-02T14:21:03.247Z,25.73
2018-04-02T14:23:30.940Z,27.37
2018-04-02T14:25:59.359Z,25.27
2018-04-02T14:28:27.410Z,26.07
2018-04-02T14:30:55.834Z,26.70
2018-04-02T14:33:23.461Z,24.37
2018-04-02T14:35:51.846Z,24.50
2018-04-02T14:38:20.628Z,24.40
2018-04-02T14:40:49.035Z,24.57
2018-04-02T14:43:17.141Z,28.63
2018-04-02T14:45:44.772Z,25.57
2018-04-02T14:48:12.438Z,23.97
2018-04-02T14:50:40.043Z,21.03
2018-04-02T14:53:08.492Z,22.57
2018-04-02T14:55:37.640Z,21.13
2018-04-02T14:58:05.270Z,23.20
2018-04-02T15:00:32.954Z,23.83
2018-04-02T15:03:00.992Z,24.57
2018-04-02T15:05:28.635Z,22.23
2018-04-02T15:07:57.048Z,25.67
2018-04-02T15:10:25.080Z,27.77
2018-04-02T15:12:52.734Z,22.90
2018-04-02T15:15:20.454Z,27.20
2018-04-02T15:17:48.924Z,23.00
2018-04-02T15:20:17.305Z,24.20
2018-04-02T15:22:45.775Z,20.27
2018-04-02T15:25:15.173Z,24.40
2018-04-02T15:27:42.987Z,24.67
2018-04-02T15:30:10.989Z,22.83
2018-04-02T15:32:39.054Z,27.93
2018-04-02T15:35:06.724Z,26.00
2018-04-02T15:37:35.143Z,30.13
2018-04-02T15:40:03.661Z,28.90
2018-04-02T15:42:32.040Z,38.67
2018-04-02T15:45:00.853Z,28.07
2018-04-02T15:47:28.478Z,27.00
2018-04-02T15:49:56.142Z,32.37
2018-04-02T15:52:24.195Z,29.50
2018-04-02T15:54:52.231Z,31.13
2018-04-02T15:57:20.287Z,28.23
2018-04-02T15:59:48.717Z,24.47
2018-04-02T16:02:17.159Z,21.33
2018-04-02T16:04:46.368Z,25.40
2018-04-02T16:07:14.006Z,20.07
2018-04-02T16:09:41.611Z,21.23
2018-04-02T16:12:10.063Z,22.50
2018-04-02T16:14:38.105Z,22.53
2018-04-02T16:17:06.602Z,20.73
2018-04-02T16:19:34.332Z,19.93
2018-04-02T16:22:02.363Z,21.07
2018-04-02T16:24:29.991Z,21.17
2018-04-02T16:26:58.084Z,19.73
2018-04-02T16:29:25.697Z,17.63
2018-04-02T16:31:53.780Z,19.67
2018-04-02T16:34:22.799Z,17.07
2018-04-02T16:36:50.447Z,18.63
2018-04-02T16:39:18.086Z,21.67
2018-04-02T16:41:46.545Z,20.87
2018-04-02T16:44:14.954Z,18.37
2018-04-02T16:46:43.780Z,19.67
2018-04-02T16:49:11.415Z,20.00
2018-04-02T16:51:40.524Z,17.17
2018-04-02T16:54:08.173Z,15.90
2018-04-02T16:56:36.585Z,18.90
2018-04-02T16:59:04.224Z,18.37
2018-04-02T17:01:32.622Z,18.47
2018-04-02T17:04:01.069Z,20.43
2018-04-02T17:06:29.918Z,17.77
2018-04-02T17:08:57.945Z,18.57
2018-04-02T17:11:26.046Z,20.27
2018-04-02T17:13:55.210Z,19.63
2018-04-02T17:16:23.243Z,18.27
2018-04-02T17:18:50.870Z,15.73
2018-04-02T17:21:18.534Z,15.97
2018-04-02T17:23:46.268Z,19.33
2018-04-02T17:26:13.874Z,14.73
2018-04-02T17:28:41.924Z,15.10
2018-04-02T17:31:11.061Z,15.80
2018-04-02T17:33:38.709Z,19.33
2018-04-02T17:36:07.534Z,14.83
2018-04-02T17:38:35.157Z,16.03
2018-04-02T17:41:03.252Z,14.83
2018-04-02T17:43:30.868Z,16.87
2018-04-02T17:45:58.566Z,17.23
2018-04-02T17:48:27.410Z,17.30
2018-04-02T17:50:55.101Z,16.27
2018-04-02T17:53:23.140Z,16.57
2018-04-02T17:55:51.963Z,16.57
2018-04-02T17:58:20.350Z,16.33
2018-04-02T18:00:48.415Z,16.37
2018-04-02T18:03:16.491Z,15.43
2018-04-02T18:05:45.335Z,16.90
2018-04-02T18:08:13.390Z,14.47
2018-04-02T18:10:41.843Z,14.57
2018-04-02T18:13:10.235Z,13.93
2018-04-02T18:15:38.685Z,16.17
2018-04-02T18:18:07.129Z,13.87
2018-04-02T18:20:35.580Z,14.43
2018-04-02T18:23:04.349Z,13.03
2018-04-02T18:25:32.372Z,14.57
2018-04-02T18:28:00.159Z,12.50
2018-04-02T18:30:28.586Z,13.47
2018-04-02T18:32:56.196Z,15.17
2018-04-02T18:35:23.875Z,12.60
2018-04-02T18:37:52.646Z,14.40
2018-04-02T18:40:20.292Z,14.80
2018-04-02T18:42:48.340Z,15.23
2018-04-02T18:45:15.965Z,12.30
2018-04-02T18:47:43.709Z,14.50
2018-04-02T18:50:12.845Z,12.33
2018-04-02T18:52:40.918Z,13.93
2018-04-02T18:55:09.692Z,11.67
2018-04-02T18:57:37.322Z,12.37
2018-04-02T19:00:05.024Z,13.20
2018-04-02T19:02:34.063Z,13.20
2018-04-02T19:05:02.129Z,12.50
2018-04-02T19:07:29.772Z,12.60
2018-04-02T19:09:57.863Z,12.23
2018-04-02T19:12:25.914Z,14.13
2018-04-02T19:14:54.684Z,11.07
2018-04-02T19:17:22.749Z,12.27
2018-04-02T19:19:51.222Z,11.97
2018-04-02T19:22:19.264Z,12.93
2018-04-02T19:24:47.335Z,10.83
2018-04-02T19:27:15.351Z,11.37
2018-04-02T19:29:42.975Z,12.37
2018-04-02T19:32:12.127Z,16.47
2018-04-02T19:34:40.206Z,11.53
2018-04-02T19:37:07.844Z,13.07
2018-04-02T19:39:36.253Z,11.83
2018-04-02T19:42:04.342Z,9.60
2018-04-02T19:44:31.991Z,10.10
2018-04-02T19:47:00.998Z,10.37
2018-04-02T19:49:28.650Z,10.77
2018-04-02T19:51:57.770Z,11.13
2018-04-02T19:54:26.190Z,9.23
2018-04-02T19:56:54.228Z,8.93
2018-04-02T19:59:22.668Z,7.67
2018-04-02T20:01:50.303Z,8.10
2018-04-02T20:04:18.795Z,7.50
2018-04-02T20:06:47.158Z,10.90
2018-04-02T20:09:15.168Z,6.23
2018-04-02T20:11:42.868Z,8.97
2018-04-02T20:14:10.908Z,6.60
2018-04-02T20:16:39.332Z,9.17
2018-04-02T20:19:08.287Z,9.47
2018-04-02T20:21:36.347Z,10.90
2018-04-02T20:24:04.047Z,8.17
2018-04-02T20:26:32.059Z,7.93
2018-04-02T20:28:59.751Z,6.30
2018-04-02T20:31:27.395Z,7.93
2018-04-02T20:33:55.499Z,9.10
2018-04-02T20:36:23.930Z,7.63
2018-04-02T20:38:52.010Z,10.07
2018-04-02T20:41:20.507Z,5.63
2018-04-02T20:43:48.106Z,7.17
2018-04-02T20:46:16.135Z,6.73
2018-04-02T20:48:44.178Z,6.13
2018-04-02T20:51:12.940Z,6.17
2018-04-02T20:53:41.745Z,6.83
2018-04-02T20:56:09.407Z,5.73
2018-04-02T20:58:37.487Z,7.50
2018-04-02T21:01:05.152Z,6.07
2018-04-02T21:03:34.282Z,7.07
2018-04-02T21:06:03.065Z,6.03
2018-04-02T21:08:31.122Z,4.97
2018-04-02T21:10:58.731Z,6.73
2018-04-02T21:13:27.174Z,5.07
2018-04-02T21:15:56.380Z,6.70
2018-04-02T21:18:25.737Z,6.43
2018-04-02T21:20:53.894Z,6.00
2018-04-02T21:23:22.048Z,6.27
2018-04-02T21:25:50.851Z,5.63
2018-04-02T21:28:19.839Z,7.20
2018-04-02T21:30:47.886Z,7.33
2018-04-02T21:33:15.903Z,6.33
2018-04-02T21:35:43.527Z,7.17
2018-04-02T21:38:11.251Z,5.87
2018-04-02T21:40:38.856Z,5.83
2018-04-02T21:43:08.030Z,6.83
2018-04-02T21:45:36.535Z,9.77
2018-04-02T21:48:04.508Z,5.77
2018-04-02T21:50:32.535Z,6.17
2018-04-02T21:53:00.193Z,5.47
2018-04-02T21:55:27.799Z,7.27
2018-04-02T21:57:56.995Z,6.77
2018-04-02T22:00:27.210Z,8.80
2018-04-02T22:02:56.036Z,7.33
2018-04-02T22:05:24.564Z,7.50
2018-04-02T22:07:53.459Z,8.23
2018-04-02T22:10:21.100Z,6.07
2018-04-02T22:12:48.698Z,5.73
2018-04-02T22:15:16.367Z,8.07
2018-04-02T22:17:44.754Z,5.63
2018-04-02T22:20:12.815Z,6.57
2018-04-02T22:22:41.808Z,9.13
2018-04-02T22:25:09.871Z,7.50
2018-04-02T22:27:37.925Z,7.10
2018-04-02T22:30:05.518Z,7.40
2018-04-02T22:32:33.925Z,8.67
2018-04-02T22:35:01.951Z,6.40
2018-04-02T22:37:29.640Z,9.83
2018-04-02T22:39:57.310Z,6.83
2018-04-02T22:42:26.704Z,7.50
2018-04-02T22:44:55.131Z,9.10
2018-04-02T22:47:23.546Z,7.17
2018-04-02T22:49:51.604Z,6.97
2018-04-02T22:52:20.372Z,9.57
2018-04-02T22:54:49.198Z,7.70
2018-04-02T22:57:18.005Z,6.27
2018-04-02T22:59:45.606Z,5.70
2018-04-02T23:02:14.029Z,8.13
2018-04-02T23:04:42.396Z,6.87
2018-04-02T23:07:10.805Z,7.57
2018-04-02T23:09:39.283Z,6.93
2018-04-02T23:12:08.254Z,7.40
2018-04-02T23:14:36.708Z,6.23
2018-04-02T23:17:05.095Z,7.30
2018-04-02T23:19:32.696Z,6.53
2018-04-02T23:22:00.386Z,6.50
2018-04-02T23:24:28.507Z,6.37
2018-04-02T23:26:56.152Z,6.90
2018-04-02T23:29:24.229Z,5.03
2018-04-02T23:31:53.330Z,7.77
2018-04-02T23:34:20.956Z,8.93
2018-04-02T23:36:49.375Z,7.73
2018-04-02T23:39:17.867Z,5.47
2018-04-02T23:41:45.902Z,5.73
2018-04-02T23:44:13.511Z,6.13
2018-04-02T23:46:41.192Z,7.27
2018-04-02T23:49:08.838Z,6.43
2018-04-02T23:51:37.696Z,8.90
2018-04-02T23:54:06.147Z,7.50
2018-04-02T23:56:33.747Z,7.27
2018-04-02T23:59:01.835Z,7.27
